Time;durP1;ratioP1;P1;durP2;ratioP2;P2;SDS_P1;SDS_P2;PMS_P1;PMS_P2;Temp;Humidity;BMP_temperature;BMP_pressure;BME280_temperature;BME280_humidity;BME280_pressure;Samples;Min_cycle;Max_cycle;Signal;HPM_P1;HPM_P2
2022/04/26 03:36:07;;;;;;;1.77;1.30;;;21.60;41.90;;;;;;5064216;27;88170;-66
2022/04/26 03:38:36;;;;;;;1.93;1.40;;;21.60;41.90;;;;;;5065161;27;90483;-65
2022/04/26 03:41:04;;;;;;;3.80;1.60;;;21.60;41.90;;;;;;5077211;27;90107;-65
2022/04/26 03:43:32;;;;;;;1.57;1.47;;;21.60;42.00;;;;;;5083015;27;88440;-66
2022/04/26 03:46:00;;;;;;;1.77;1.30;;;21.60;41.90;;;;;;5063651;27;88487;-66
2022/04/26 03:48:29;;;;;;;2.50;1.63;;;21.60;41.90;;;;;;5065275;27;90566;-66
2022/04/26 03:50:59;;;;;;;1.83;1.60;;;21.60;41.90;;;;;;5072093;27;90173;-66
2022/04/26 03:53:27;;;;;;;2.67;2.03;;;21.60;41.90;;;;;;5082822;27;88531;-66
2022/04/26 03:55:55;;;;;;;1.87;1.53;;;21.60;41.90;;;;;;5067083;27;88550;-66
2022/04/26 03:58:25;;;;;;;2.03;1.57;;;21.60;41.90;;;;;;5067277;27;89870;-65
2022/04/26 04:00:53;;;;;;;3.40;2.40;;;21.50;41.70;;;;;;5072200;27;89199;-65
2022/04/26 04:03:21;;;;;;;4.90;3.00;;;21.60;41.80;;;;;;5084667;27;88428;-66
2022/04/26 04:05:49;;;;;;;4.97;3.07;;;21.60;41.80;;;;;;5083259;27;89601;-65
2022/04/26 04:08:18;;;;;;;8.23;4.37;;;21.60;41.80;;;;;;5081782;27;90596;-67
2022/04/26 04:10:46;;;;;;;10.17;4.50;;;21.60;41.80;;;;;;5074254;27;90064;-65
2022/04/26 04:13:15;;;;;;;7.30;4.50;;;21.50;41.70;;;;;;5072488;27;88336;-65
2022/04/26 04:15:43;;;;;;;12.90;6.30;;;21.50;41.70;;;;;;5063869;27;88478;-65
2022/04/26 04:20:53;;;;;;;9.67;5.90;;;21.50;41.70;;;;;;5070552;27;88796;-65
2022/04/26 04:23:22;;;;;;;12.87;6.67;;;21.50;41.70;;;;;;5064582;27;89013;-65
2022/04/26 04:25:51;;;;;;;8.23;5.40;;;21.50;41.70;;;;;;5064270;27;88582;-66
2022/04/26 04:28:19;;;;;;;8.77;5.60;;;21.50;41.70;;;;;;5063463;27;92776;-69
2022/04/26 04:30:47;;;;;;;17.10;7.30;;;21.50;41.70;;;;;;5074354;27;92523;-66
2022/04/26 04:33:15;;;;;;;10.83;6.60;;;21.50;41.80;;;;;;5084611;27;88385;-65
2022/04/26 04:35:43;;;;;;;10.77;7.07;;;21.50;41.80;;;;;;5081714;27;89043;-66
2022/04/26 04:38:12;;;;;;;14.93;7.70;;;21.50;41.70;;;;;;5066004;27;88407;-66
2022/04/26 04:40:42;;;;;;;13.67;7.20;;;21.50;41.70;;;;;;5076460;27;90553;-65
2022/04/26 04:43:12;;;;;;;13.93;7.60;;;21.50;41.70;;;;;;5078978;27;88559;-66
2022/04/26 04:45:40;;;;;;;15.90;8.20;;;21.50;41.70;;;;;;5083331;27;88595;-66
2022/04/26 04:48:09;;;;;;;14.50;7.60;;;21.50;41.70;;;;;;5082804;27;92468;-66
2022/04/26 04:50:37;;;;;;;16.63;8.03;;;21.50;41.70;;;;;;5071732;27;89599;-67
2022/04/26 04:53:05;;;;;;;13.37;8.57;;;21.50;42.40;;;;;;5062886;27;88487;-67
2022/04/26 04:55:33;;;;;;;17.33;9.17;;;21.50;41.70;;;;;;5071571;27;88626;-66
2022/04/26 04:58:04;;;;;;;15.43;8.33;;;21.50;41.70;;;;;;5065610;27;90213;-66
2022/04/26 05:00:32;;;;;;;14.77;8.03;;;21.50;41.70;;;;;;5070416;27;88813;-67
2022/04/26 05:03:00;;;;;;;13.17;7.37;;;21.50;41.70;;;;;;5062945;27;88444;-66
2022/04/26 05:05:28;;;;;;;14.70;7.80;;;21.50;41.70;;;;;;5063197;27;88637;-66
2022/04/26 05:07:58;;;;;;;18.47;8.20;;;21.50;41.70;;;;;;5062641;27;91132;-67
2022/04/26 05:10:26;;;;;;;11.87;8.10;;;21.50;41.70;;;;;;5071316;27;88392;-66
2022/04/26 05:12:54;;;;;;;11.17;7.17;;;21.50;41.70;;;;;;5063518;27;88629;-67
2022/04/26 05:15:26;;;;;;;14.33;7.37;;;21.50;41.70;;;;;;5063691;27;88440;-66
2022/04/26 05:17:55;;;;;;;15.23;7.57;;;21.50;41.70;;;;;;5062172;27;91929;-66
2022/04/26 05:20:23;;;;;;;12.77;7.17;;;21.50;41.70;;;;;;5067732;27;90392;-66
2022/04/26 05:25:37;;;;;;;12.63;5.60;;;21.50;41.70;;;;;;5054173;27;89627;-66
2022/04/26 05:28:05;;;;;;;13.23;6.97;;;21.50;41.70;;;;;;5059032;27;93713;-66
2022/04/26 05:30:35;;;;;;;11.87;6.57;;;21.50;41.80;;;;;;5065498;27;90002;-66
2022/04/26 05:33:02;;;;;;;13.33;6.13;;;21.50;41.80;;;;;;5041593;28;88350;-66
2022/04/26 05:35:30;;;;;;;9.30;5.70;;;21.40;41.70;;;;;;5042009;27;88571;-66
2022/04/26 05:37:58;;;;;;;8.87;5.50;;;21.40;41.90;;;;;;5062965;27;90692;-66
2022/04/26 05:40:26;;;;;;;9.80;5.43;;;21.50;41.90;;;;;;5066598;27;92972;-66
2022/04/26 05:42:54;;;;;;;12.13;5.50;;;21.50;42.00;;;;;;5062482;27;88454;-66
2022/04/26 05:45:25;;;;;;;9.20;5.27;;;21.50;42.00;;;;;;5081910;27;88976;-66
2022/04/26 05:47:55;;;;;;;9.37;5.23;;;21.50;42.00;;;;;;5081589;27;91507;-66
2022/04/26 05:50:23;;;;;;;9.73;5.43;;;21.50;42.00;;;;;;5073229;27;93421;-66
2022/04/26 05:52:51;;;;;;;7.93;4.63;;;21.50;42.00;;;;;;5061998;27;88470;-66
2022/04/26 05:55:19;;;;;;;5.53;4.00;;;21.50;42.00;;;;;;5063439;27;88698;-65
2022/04/26 05:57:47;;;;;;;8.60;4.37;;;21.50;42.00;;;;;;5049015;27;93581;-66
2022/04/26 06:00:15;;;;;;;5.93;4.10;;;21.50;42.00;;;;;;5066115;27;90428;-66
2022/04/26 06:02:43;;;;;;;7.10;3.77;;;21.60;42.10;;;;;;5061569;27;88403;-66
2022/04/26 06:05:20;;;;;;;8.13;3.90;;;21.60;42.10;;;;;;5067604;27;88470;-66
2022/04/26 06:07:49;;;;;;;7.97;3.83;;;21.60;42.10;;;;;;5079709;27;89953;-66
2022/04/26 06:10:17;;;;;;;6.17;3.33;;;21.60;42.10;;;;;;5071978;27;88799;-66
2022/04/26 06:12:46;;;;;;;6.10;3.57;;;21.60;42.10;;;;;;5062597;27;88511;-66
2022/04/26 06:15:15;;;;;;;5.30;3.50;;;21.60;42.10;;;;;;5071909;27;88536;-66
2022/04/26 06:17:43;;;;;;;7.37;3.43;;;21.60;42.10;;;;;;5061013;27;90598;-66
2022/04/26 06:20:12;;;;;;;6.80;3.60;;;21.60;42.10;;;;;;5067924;27;89978;-66
2022/04/26 06:22:44;;;;;;;5.63;2.90;;;21.60;42.10;;;;;;5082411;27;88532;-66
2022/04/26 06:25:12;;;;;;;5.23;2.87;;;21.60;42.10;;;;;;5071651;27;90266;-66
2022/04/26 06:27:40;;;;;;;4.40;2.97;;;21.60;42.10;;;;;;5062956;27;93205;-66
2022/04/26 06:30:09;;;;;;;3.70;2.50;;;21.60;42.10;;;;;;5066863;27;90657;-66
2022/04/26 06:32:41;;;;;;;3.20;2.50;;;21.70;42.10;;;;;;5073823;27;88413;-66
2022/04/26 06:35:10;;;;;;;4.57;2.17;;;21.70;42.10;;;;;;5071753;27;88683;-66
2022/04/26 06:37:38;;;;;;;3.57;2.73;;;21.70;42.20;;;;;;5077168;27;90607;-66
2022/04/26 06:40:08;;;;;;;5.63;2.73;;;21.70;42.10;;;;;;5066285;27;89984;-66
2022/04/26 06:42:36;;;;;;;3.97;2.77;;;21.70;42.20;;;;;;5064573;27;88461;-66
2022/04/26 06:45:05;;;;;;;4.07;2.30;;;21.70;42.30;;;;;;5078144;27;88469;-66
2022/04/26 06:47:33;;;;;;;3.40;2.40;;;21.70;42.40;;;;;;5076906;27;91560;-66
2022/04/26 06:50:01;;;;;;;6.17;2.33;;;21.70;42.50;;;;;;5079171;27;88913;-66
2022/04/26 06:52:31;;;;;;;5.63;2.17;;;21.70;42.60;;;;;;5059092;27;88922;-66
2022/04/26 06:54:59;;;;;;;3.10;2.00;;;21.70;42.80;;;;;;5066521;27;88582;-66
2022/04/26 06:57:29;;;;;;;2.67;1.93;;;21.70;42.80;;;;;;5070335;27;92048;-66
2022/04/26 06:59:57;;;;;;;3.07;2.27;;;21.80;43.00;;;;;;5062585;27;89005;-66
2022/04/26 07:02:25;;;;;;;3.17;1.80;;;21.80;43.00;;;;;;5055582;27;88261;-66
2022/04/26 07:04:53;;;;;;;4.77;2.30;;;21.80;43.00;;;;;;5080028;27;88311;-66
2022/04/26 07:07:22;;;;;;;2.13;1.90;;;21.90;43.00;;;;;;5056505;27;90299;-66
2022/04/26 07:09:50;;;;;;;2.53;1.70;;;21.90;43.10;;;;;;5052958;27;91087;-66
2022/04/26 07:12:18;;;;;;;3.30;1.70;;;21.90;43.10;;;;;;5074038;27;88504;-66
2022/04/26 07:14:47;;;;;;;3.33;1.73;;;22.00;43.20;;;;;;5063755;27;88454;-66
2022/04/26 07:17:17;;;;;;;4.53;2.27;;;21.90;43.10;;;;;;5060398;27;90221;-66
2022/04/26 07:19:45;;;;;;;2.13;1.50;;;22.00;43.20;;;;;;5077063;27;89596;-67
2022/04/26 07:22:27;;;;;;;3.60;2.00;;;22.00;43.20;;;;;;5079491;27;88238;-66
2022/04/26 07:24:55;;;;;;;2.40;1.57;;;22.00;43.20;;;;;;5076509;27;88509;-66
2022/04/26 07:27:23;;;;;;;2.93;1.37;;;22.00;43.20;;;;;;5068429;27;90628;-66
2022/04/26 07:29:52;;;;;;;4.57;1.90;;;22.00;43.20;;;;;;5074765;27;89992;-66
2022/04/26 07:34:20;;;;;;;3.40;2.07;;;22.00;43.10;;;;;;5071414;27;88437;-66
2022/04/26 07:35:09;;;;;;;3.53;1.50;;;22.00;43.10;;;;;;5077286;27;88559;-66
2022/04/26 07:37:37;;;;;;;1.47;1.37;;;22.10;43.20;;;;;;5072047;27;90608;-66
2022/04/26 07:40:07;;;;;;;4.60;1.70;;;22.10;43.20;;;;;;5063822;27;90015;-66
2022/04/26 07:42:34;;;;;;;4.20;1.60;;;22.00;43.10;;;;;;5060776;27;88301;-66
2022/04/26 07:45:05;;;;;;;2.03;1.37;;;22.10;43.20;;;;;;5060743;27;88459;-66
2022/04/26 07:47:33;;;;;;;3.03;1.70;;;22.10;43.30;;;;;;5061860;27;90206;-66
2022/04/26 07:50:02;;;;;;;2.87;1.33;;;22.00;43.20;;;;;;5062776;27;89337;-66
2022/04/26 07:52:31;;;;;;;2.40;1.60;;;22.00;43.10;;;;;;5063919;27;88540;-66
2022/04/26 07:54:59;;;;;;;5.43;1.47;;;22.10;43.20;;;;;;5063941;27;88728;-66
2022/04/26 07:57:27;;;;;;;1.53;1.43;;;22.10;43.20;;;;;;5063870;27;91090;-66
2022/04/26 07:59:55;;;;;;;21.83;1.30;;;22.10;43.20;;;;;;5064032;27;90068;-66
2022/04/26 08:02:24;;;;;;;2.83;1.10;;;22.10;43.20;;;;;;5064465;27;88482;-66
2022/04/26 08:04:54;;;;;;;3.20;1.00;;;22.10;43.20;;;;;;5063438;27;88466;-66
2022/04/26 08:07:22;;;;;;;2.37;1.37;;;22.10;43.20;;;;;;5063539;27;90841;-67
2022/04/26 08:09:50;;;;;;;2.73;1.10;;;22.10;43.20;;;;;;5063100;27;90206;-66
2022/04/26 08:12:18;;;;;;;3.90;1.17;;;22.10;43.20;;;;;;5064254;27;88368;-66
2022/04/26 08:14:46;;;;;;;2.07;1.17;;;22.10;43.20;;;;;;5063490;27;88438;-66
2022/04/26 08:17:15;;;;;;;1.37;1.00;;;22.10;43.10;;;;;;5062649;27;93697;-66
2022/04/26 08:19:44;;;;;;;3.63;0.93;;;22.10;43.10;;;;;;5061726;27;88872;-66
2022/04/26 08:22:12;;;;;;;2.90;1.20;;;22.10;43.10;;;;;;5062938;27;88688;-66
2022/04/26 08:27:26;;;;;;;2.83;1.13;;;22.10;43.10;;;;;;5063725;27;88946;-66
2022/04/26 08:29:54;;;;;;;2.83;1.20;;;22.10;43.00;;;;;;5063794;27;89500;-66
2022/04/26 08:32:23;;;;;;;1.97;1.60;;;22.10;43.00;;;;;;5063506;27;88608;-66
2022/04/26 08:34:53;;;;;;;3.17;1.30;;;22.10;43.00;;;;;;5063104;27;88444;-66
2022/04/26 08:37:23;;;;;;;1.20;1.07;;;22.10;43.00;;;;;;5062778;27;93738;-66
2022/04/26 08:39:55;;;;;;;2.40;1.30;;;22.00;43.00;;;;;;5063743;27;88648;-66
2022/04/26 08:42:35;;;;;;;1.60;1.50;;;22.10;43.00;;;;;;5063037;27;88388;-67
2022/04/26 08:45:11;;;;;;;2.70;1.50;;;22.10;43.00;;;;;;5057513;27;88459;-67
2022/04/26 08:53:12;;;;;;;1.53;1.00;;;22.10;42.90;;;;;;5042493;27;88379;-67
2022/04/26 08:55:42;;;;;;;1.87;0.93;;;22.10;42.90;;;;;;5060083;27;88391;-67
2022/04/26 08:58:11;;;;;;;1.37;1.27;;;22.00;42.80;;;;;;5062695;27;89497;-67
2022/04/26 09:00:40;;;;;;;2.67;1.20;;;22.10;42.90;;;;;;5055935;27;93378;-68
2022/04/26 09:03:08;;;;;;;4.00;1.20;;;22.10;42.80;;;;;;5059752;27;88458;-67
2022/04/26 09:05:38;;;;;;;1.87;1.07;;;22.10;42.90;;;;;;5074116;27;88619;-67
2022/04/26 09:08:22;;;;;;;1.60;1.17;;;22.10;42.80;;;;;;5062946;27;90964;-67
2022/04/26 09:10:50;;;;;;;1.10;1.00;;;22.00;42.80;;;;;;5062342;27;89154;-67
2022/04/26 09:13:20;;;;;;;1.70;1.13;;;22.10;42.80;;;;;;5062410;27;88566;-67
2022/04/26 09:15:50;;;;;;;1.50;1.10;;;22.10;42.80;;;;;;5062162;27;88327;-67
2022/04/26 09:18:24;;;;;;;2.67;1.00;;;22.10;43.50;;;;;;5062413;27;90082;-67
2022/04/26 09:20:54;;;;;;;1.20;1.00;;;22.10;42.80;;;;;;5062800;27;89674;-67
2022/04/26 09:23:23;;;;;;;1.40;0.67;;;22.10;42.80;;;;;;5062833;27;88431;-67
2022/04/26 09:25:54;;;;;;;1.57;1.10;;;22.10;42.80;;;;;;5059199;27;88489;-67
2022/04/26 09:28:27;;;;;;;2.90;1.00;;;22.10;42.80;;;;;;5050390;27;90072;-67
2022/04/26 09:30:56;;;;;;;2.93;1.20;;;22.10;42.80;;;;;;5053162;27;88986;-67
2022/04/26 09:33:38;;;;;;;1.00;0.70;;;22.10;42.80;;;;;;5055893;27;88352;-67
2022/04/26 09:36:09;;;;;;;3.30;1.10;;;22.10;42.80;;;;;;5062984;27;88386;-67
2022/04/26 09:38:37;;;;;;;1.37;1.27;;;22.10;42.80;;;;;;5062860;27;90542;-67
2022/04/26 09:41:07;;;;;;;0.97;0.83;;;22.10;42.80;;;;;;5062369;27;89780;-67
2022/04/26 09:43:35;;;;;;;1.40;1.00;;;22.10;42.90;;;;;;5062925;27;88254;-67
2022/04/26 09:46:04;;;;;;;1.33;1.00;;;22.10;42.90;;;;;;5061791;27;88461;-67
2022/04/26 09:48:35;;;;;;;0.87;0.80;;;22.10;42.80;;;;;;5062823;27;90283;-66
2022/04/26 09:51:03;;;;;;;0.93;0.80;;;22.10;42.80;;;;;;5062063;27;90114;-67
2022/04/26 09:53:33;;;;;;;1.30;0.90;;;22.10;42.90;;;;;;5055342;27;88578;-67
2022/04/26 09:56:02;;;;;;;2.27;0.80;;;22.10;43.40;;;;;;5048152;27;88509;-67
2022/04/26 09:58:44;;;;;;;1.17;0.73;;;22.20;42.80;;;;;;5061019;27;91053;-66
2022/04/26 10:01:14;;;;;;;8.37;1.00;;;22.20;42.70;;;;;;5057921;27;89517;-67
2022/04/26 10:03:43;;;;;;;1.00;0.90;;;22.20;42.80;;;;;;5043863;27;88547;-67
2022/04/26 10:06:11;;;;;;;3.63;1.30;;;22.20;42.70;;;;;;5061228;27;88676;-67
2022/04/26 10:08:41;;;;;;;1.43;0.93;;;22.20;42.60;;;;;;5073251;27;91079;-67
2022/04/26 10:11:09;;;;;;;1.70;0.80;;;22.20;42.60;;;;;;5079477;27;89383;-67
2022/04/26 10:13:42;;;;;;;1.17;0.83;;;22.20;42.60;;;;;;5068926;27;88124;-67
2022/04/26 10:16:10;;;;;;;2.00;0.93;;;22.20;43.30;;;;;;5068955;27;88674;-66
2022/04/26 10:18:40;;;;;;;2.10;1.10;;;22.20;42.60;;;;;;5060700;27;90555;-66
2022/04/26 10:21:08;;;;;;;1.20;0.80;;;22.20;42.60;;;;;;5060925;27;89133;-66
2022/04/26 10:24:15;;;;;;;4.13;0.97;;;22.20;42.60;;;;;;5061377;27;88684;-67
2022/04/26 10:26:43;;;;;;;1.03;0.80;;;22.20;42.60;;;;;;5062130;27;88470;-67
2022/04/26 10:29:16;;;;;;;0.87;0.83;;;22.20;42.50;;;;;;5061864;27;90768;-67
2022/04/26 10:31:45;;;;;;;4.63;1.20;;;22.20;42.60;;;;;;5061848;27;90109;-66
2022/04/26 10:34:27;;;;;;;1.00;0.70;;;22.20;42.60;;;;;;5061237;27;88693;-66
2022/04/26 10:36:56;;;;;;;2.83;0.80;;;22.20;42.50;;;;;;5062176;27;88435;-67
2022/04/26 10:39:31;;;;;;;1.50;0.97;;;22.20;42.50;;;;;;5061022;27;90757;-67
2022/04/26 10:42:00;;;;;;;1.43;0.70;;;22.20;42.50;;;;;;5061125;27;88959;-67
2022/04/26 10:44:30;;;;;;;1.40;0.70;;;22.20;42.50;;;;;;5060804;27;88417;-67
2022/04/26 10:47:39;;;;;;;1.03;0.80;;;22.20;42.40;;;;;;5061370;27;88441;-67
2022/04/26 10:50:08;;;;;;;1.60;0.90;;;22.10;42.40;;;;;;5061238;27;90769;-67
2022/04/26 10:52:50;;;;;;;1.73;0.80;;;22.20;42.30;;;;;;5061405;27;92167;-67
2022/04/26 10:55:20;;;;;;;1.77;0.70;;;22.20;42.30;;;;;;5061521;27;88514;-67
2022/04/26 10:57:50;;;;;;;2.00;0.93;;;22.20;42.20;;;;;;5061083;27;88567;-67
2022/04/26 11:00:21;;;;;;;1.20;0.90;;;22.20;42.10;;;;;;5061545;27;89803;-67
2022/04/26 11:02:50;;;;;;;1.17;1.00;;;22.20;42.00;;;;;;5061059;27;89000;-67
2022/04/26 11:05:19;;;;;;;1.50;1.00;;;22.20;42.00;;;;;;5061842;27;88261;-67
2022/04/26 11:07:48;;;;;;;3.27;0.80;;;22.20;41.90;;;;;;5061444;27;88645;-67
2022/04/26 11:10:17;;;;;;;2.30;0.90;;;22.20;41.90;;;;;;5061998;27;90229;-67
2022/04/26 11:12:46;;;;;;;1.03;0.90;;;22.20;41.90;;;;;;5061867;27;89443;-67
2022/04/26 11:15:15;;;;;;;1.20;0.80;;;22.20;41.80;;;;;;5061754;27;88543;-67
2022/04/26 11:17:43;;;;;;;0.90;0.77;;;22.30;41.80;;;;;;5060184;27;88615;-67
2022/04/26 11:20:13;;;;;;;1.70;0.80;;;22.30;41.80;;;;;;5060481;27;89522;-67
2022/04/26 11:22:48;;;;;;;1.03;0.83;;;22.30;41.80;;;;;;5063109;27;89051;-67
2022/04/26 11:28:08;;;;;;;0.70;0.70;;;22.30;41.60;;;;;;5064464;27;88439;-67
2022/04/26 11:30:38;;;;;;;0.70;0.70;;;22.30;41.60;;;;;;5064291;27;90909;-67
2022/04/26 11:33:07;;;;;;;1.20;0.80;;;22.30;41.60;;;;;;5063860;27;90139;-67
2022/04/26 11:35:35;;;;;;;1.43;1.00;;;22.30;41.60;;;;;;5062825;27;88656;-67
2022/04/26 11:38:06;;;;;;;1.07;0.90;;;22.30;41.60;;;;;;5063951;27;88577;-67
2022/04/26 11:40:36;;;;;;;0.80;0.80;;;22.30;42.20;;;;;;5064638;27;93330;-67
2022/04/26 11:43:10;;;;;;;1.33;0.80;;;22.30;41.50;;;;;;5064132;27;91647;-67
2022/04/26 11:45:38;;;;;;;1.07;1.00;;;22.30;41.50;;;;;;5064251;27;88587;-67
2022/04/26 11:48:09;;;;;;;1.30;0.97;;;22.30;41.40;;;;;;5064694;27;88311;-67
2022/04/26 11:50:37;;;;;;;1.90;1.10;;;22.10;41.20;;;;;;5064097;27;90696;-66
2022/04/26 11:53:06;;;;;;;0.77;0.77;;;22.40;41.40;;;;;;5063870;27;89119;-67
2022/04/26 11:55:35;;;;;;;0.90;0.90;;;22.40;41.30;;;;;;5062614;27;88386;-67
2022/04/26 11:58:16;;;;;;;1.13;0.70;;;22.40;41.30;;;;;;5064104;27;88479;-67
2022/04/26 12:00:59;;;;;;;2.60;0.90;;;22.40;41.20;;;;;;5064133;27;93271;-67
2022/04/26 12:03:29;;;;;;;2.20;1.00;;;22.40;41.20;;;;;;5063838;27;90187;-67
2022/04/26 12:05:58;;;;;;;0.60;0.60;;;22.40;41.20;;;;;;5063647;27;88353;-67
2022/04/26 12:08:27;;;;;;;0.93;0.80;;;22.40;41.20;;;;;;5064354;27;88553;-67
2022/04/26 12:10:56;;;;;;;1.50;0.93;;;22.40;41.10;;;;;;5063699;27;89734;-67
2022/04/26 12:13:32;;;;;;;1.40;1.00;;;22.40;41.10;;;;;;5063653;27;89211;-67
2022/04/26 12:16:19;;;;;;;1.20;0.80;;;22.40;41.10;;;;;;5064688;27;88472;-67
2022/04/26 12:18:52;;;;;;;2.00;0.90;;;22.40;41.10;;;;;;5064085;27;88372;-67
2022/04/26 12:21:20;;;;;;;0.80;0.80;;;22.40;41.00;;;;;;5063602;27;90645;-67
2022/04/26 12:23:48;;;;;;;2.33;0.63;;;22.40;40.90;;;;;;5063427;27;90027;-67
2022/04/26 12:26:16;;;;;;;1.73;0.80;;;22.50;41.00;;;;;;5063475;27;88562;-67
2022/04/26 12:28:50;;;;;;;1.27;1.17;;;22.50;40.90;;;;;;5064192;27;88104;-67
2022/04/26 12:31:22;;;;;;;0.70;0.70;;;22.50;40.80;;;;;;5062951;27;90909;-67
2022/04/26 12:33:52;;;;;;;1.20;0.80;;;22.50;40.80;;;;;;5062657;27;89536;-67
2022/04/26 12:36:20;;;;;;;1.17;1.00;;;22.50;40.70;;;;;;5064533;27;88410;-67
2022/04/26 12:38:50;;;;;;;1.37;0.97;;;22.50;40.70;;;;;;5064754;27;88666;-67
2022/04/26 12:41:22;;;;;;;0.60;0.60;;;22.50;40.60;;;;;;5064839;27;89446;-67
2022/04/26 12:44:03;;;;;;;0.73;0.73;;;22.50;40.60;;;;;;5063242;27;90472;-67
2022/04/26 12:46:45;;;;;;;0.63;0.63;;;22.50;40.60;;;;;;5043105;28;88487;-67
2022/04/26 12:51:58;;;;;;;0.90;0.70;;;22.60;40.40;;;;;;5042878;28;89415;-67
2022/04/26 12:54:26;;;;;;;0.93;0.80;;;22.50;40.30;;;;;;5042986;28;92904;-67
2022/04/26 12:56:59;;;;;;;1.23;1.10;;;22.50;40.30;;;;;;5043043;27;88583;-67
2022/04/26 12:59:36;;;;;;;2.27;0.90;;;22.60;40.30;;;;;;5043176;28;88532;-67
2022/04/26 13:02:06;;;;;;;0.97;0.90;;;22.50;40.10;;;;;;5042444;28;90610;-67
2022/04/26 13:04:35;;;;;;;0.80;0.80;;;22.60;40.10;;;;;;5042563;28;89948;-67
2022/04/26 13:07:05;;;;;;;1.33;0.80;;;22.60;40.00;;;;;;5042813;28;88424;-67
2022/04/26 13:09:35;;;;;;;0.73;0.70;;;22.60;40.00;;;;;;5043133;27;88491;-67
2022/04/26 13:12:05;;;;;;;1.70;0.90;;;22.60;39.90;;;;;;5042119;27;89789;-67
2022/04/26 13:14:35;;;;;;;1.23;0.80;;;22.60;39.80;;;;;;5042329;27;89866;-67
2022/04/26 13:17:20;;;;;;;1.07;0.60;;;22.60;39.70;;;;;;5041875;28;88335;-67
2022/04/26 13:19:48;;;;;;;2.67;0.80;;;22.50;39.60;;;;;;5043108;27;88546;-67
2022/04/26 13:22:17;;;;;;;1.57;0.70;;;22.70;39.70;;;;;;5042274;28;90619;-67
2022/04/26 13:24:45;;;;;;;0.73;0.70;;;22.70;39.70;;;;;;5042696;27;88972;-67
2022/04/26 13:27:13;;;;;;;1.67;0.97;;;22.70;39.60;;;;;;5042981;28;88758;-67
2022/04/26 13:29:42;;;;;;;3.43;0.97;;;22.70;39.50;;;;;;5043020;28;88455;-67
2022/04/26 13:32:10;;;;;;;1.20;0.80;;;22.70;39.40;;;;;;5042655;28;90685;-67
2022/04/26 13:34:38;;;;;;;1.43;0.87;;;22.70;39.40;;;;;;5041923;28;89978;-67
2022/04/26 13:37:07;;;;;;;1.43;0.73;;;22.70;39.30;;;;;;5041174;27;88420;-69
2022/04/26 13:39:38;;;;;;;0.83;0.80;;;22.70;39.30;;;;;;5039366;28;88552;-68
2022/04/26 13:42:07;;;;;;;1.50;0.83;;;22.80;39.30;;;;;;5042621;27;89466;-67
2022/04/26 13:44:35;;;;;;;1.37;0.70;;;22.80;39.30;;;;;;5046589;27;89415;-67
2022/04/26 13:47:06;;;;;;;1.37;1.13;;;22.80;39.20;;;;;;5061881;27;88434;-67
2022/04/26 13:49:35;;;;;;;0.70;0.67;;;22.80;39.20;;;;;;5062579;27;88250;-67
2022/04/26 13:52:04;;;;;;;0.73;0.73;;;22.80;39.20;;;;;;5062037;27;93758;-67
2022/04/26 13:54:32;;;;;;;0.97;0.97;;;22.80;39.20;;;;;;5061815;27;93813;-67
2022/04/26 13:57:00;;;;;;;1.70;0.83;;;22.80;39.10;;;;;;5061838;27;88483;-67
2022/04/26 13:59:28;;;;;;;1.50;0.77;;;22.80;39.10;;;;;;5062340;27;88645;-67
2022/04/26 14:02:02;;;;;;;0.90;0.90;;;22.80;39.00;;;;;;5061590;27;89532;-67
2022/04/26 14:04:32;;;;;;;0.80;0.60;;;22.80;39.00;;;;;;5061234;27;89304;-67
2022/04/26 14:07:00;;;;;;;0.73;0.73;;;22.80;38.90;;;;;;5061711;27;88371;-67
2022/04/26 14:09:28;;;;;;;0.60;0.60;;;22.80;38.90;;;;;;5062063;27;88482;-67
2022/04/26 14:11:57;;;;;;;1.03;0.80;;;22.90;39.00;;;;;;5061095;27;89783;-67
2022/04/26 14:22:47;;;;;;;1.53;0.97;;;22.90;38.80;;;;;;5061374;27;89995;-67
2022/04/26 14:25:15;;;;;;;0.60;0.60;;;22.90;38.80;;;;;;5061890;27;90009;-67
2022/04/26 14:27:45;;;;;;;0.77;0.77;;;22.90;38.80;;;;;;5061496;27;88279;-67
2022/04/26 14:30:14;;;;;;;1.13;0.80;;;22.90;38.80;;;;;;5061343;27;88464;-67
2022/04/26 14:33:02;;;;;;;1.87;0.70;;;22.90;38.80;;;;;;5061367;27;90828;-67
2022/04/26 14:35:32;;;;;;;1.00;0.60;;;23.00;38.80;;;;;;5061273;27;90154;-67
2022/04/26 14:38:00;;;;;;;2.53;0.73;;;23.00;38.70;;;;;;5062294;27;88198;-67
2022/04/26 14:40:29;;;;;;;1.77;1.00;;;23.00;38.70;;;;;;5061930;27;88524;-67
2022/04/26 14:43:04;;;;;;;0.70;0.70;;;23.00;38.70;;;;;;5060905;27;90510;-66
2022/04/26 14:45:33;;;;;;;1.43;0.73;;;23.00;38.60;;;;;;5061229;27;89481;-67
2022/04/26 14:48:01;;;;;;;1.23;0.60;;;23.00;38.60;;;;;;5061950;27;88365;-67
2022/04/26 14:50:30;;;;;;;0.70;0.70;;;23.10;38.60;;;;;;5062119;27;88094;-67
2022/04/26 14:52:59;;;;;;;0.80;0.80;;;23.10;38.60;;;;;;5061403;27;90349;-67
2022/04/26 14:55:44;;;;;;;1.00;1.00;;;23.10;38.50;;;;;;5060574;27;90092;-67
2022/04/26 14:58:14;;;;;;;0.87;0.87;;;23.10;38.50;;;;;;5061139;27;88470;-67
2022/04/26 15:00:42;;;;;;;5.40;1.10;;;23.10;39.10;;;;;;5060619;27;89201;-67
2022/04/26 15:03:10;;;;;;;1.23;0.63;;;23.20;38.50;;;;;;5061208;27;90543;-67
2022/04/26 15:05:40;;;;;;;0.83;0.80;;;23.20;38.50;;;;;;5060628;27;89558;-67
2022/04/26 15:10:54;;;;;;;1.87;1.03;;;23.20;38.50;;;;;;5061671;27;88484;-67
2022/04/26 15:18:53;;;;;;;0.80;0.80;;;23.20;38.50;;;;;;5061017;27;88466;-68
2022/04/26 15:21:24;;;;;;;1.37;1.00;;;23.20;38.50;;;;;;5061556;27;88685;-67
2022/04/26 15:23:53;;;;;;;0.60;0.60;;;23.20;38.50;;;;;;5061272;27;92982;-67
2022/04/26 15:26:22;;;;;;;1.00;0.70;;;23.20;38.50;;;;;;5062009;27;88799;-67
2022/04/26 15:28:50;;;;;;;0.77;0.77;;;23.20;38.50;;;;;;5061858;27;88309;-68
2022/04/26 15:31:18;;;;;;;0.70;0.70;;;23.20;38.50;;;;;;5061337;27;88588;-67
2022/04/26 15:33:47;;;;;;;0.83;0.80;;;23.20;38.50;;;;;;5060518;27;89159;-67
2022/04/26 15:36:15;;;;;;;0.77;0.63;;;23.20;38.50;;;;;;5060459;27;88972;-67
2022/04/26 15:38:45;;;;;;;1.53;0.73;;;23.20;38.40;;;;;;5061402;27;88417;-67
2022/04/26 15:41:13;;;;;;;1.20;0.90;;;23.20;38.40;;;;;;5061201;27;88680;-67
2022/04/26 15:43:44;;;;;;;1.00;0.80;;;23.20;38.40;;;;;;5060597;27;89536;-67
2022/04/26 15:46:32;;;;;;;0.90;0.70;;;23.20;38.30;;;;;;5060302;27;91619;-67
2022/04/26 15:49:02;;;;;;;0.97;0.70;;;23.20;38.30;;;;;;5058594;27;88329;-67
2022/04/26 15:51:30;;;;;;;1.03;0.80;;;23.20;38.30;;;;;;5061202;27;88307;-67
2022/04/26 15:54:01;;;;;;;0.90;0.90;;;23.10;38.20;;;;;;5060753;27;93435;-67
2022/04/26 15:56:29;;;;;;;1.43;0.70;;;23.10;38.20;;;;;;5060717;27;88900;-67
2022/04/26 15:58:57;;;;;;;1.30;0.97;;;23.10;38.20;;;;;;5061131;27;88597;-67
2022/04/26 16:01:26;;;;;;;0.90;0.90;;;23.10;38.20;;;;;;5061122;27;88637;-67
2022/04/26 16:03:54;;;;;;;2.33;0.70;;;23.10;38.20;;;;;;5061217;27;90015;-67
2022/04/26 16:06:22;;;;;;;2.00;0.73;;;23.10;38.20;;;;;;5060422;27;92292;-68
2022/04/26 16:08:51;;;;;;;0.60;0.60;;;23.10;38.20;;;;;;5062349;27;88337;-67
2022/04/26 16:22:22;;;;;;;1.20;0.87;;;23.10;38.10;;;;;;5032756;27;88470;-67
2022/04/26 16:24:50;;;;;;;1.47;1.00;;;23.10;38.20;;;;;;5063865;27;90078;-67
2022/04/26 16:27:20;;;;;;;1.70;1.00;;;23.10;38.30;;;;;;5063559;27;92509;-67
2022/04/26 16:29:49;;;;;;;3.60;1.10;;;23.10;38.40;;;;;;5064253;27;88396;-67
2022/04/26 16:32:16;;;;;;;1.23;0.90;;;23.10;38.40;;;;;;5063778;27;89178;-67
2022/04/26 16:34:44;;;;;;;2.60;0.93;;;23.10;38.40;;;;;;5063384;27;93347;-67
2022/04/26 16:37:13;;;;;;;2.30;1.10;;;23.10;38.30;;;;;;5078061;27;90082;-67
2022/04/26 16:39:41;;;;;;;1.80;1.20;;;23.10;38.30;;;;;;5083648;27;88272;-68
2022/04/26 16:42:09;;;;;;;1.57;1.00;;;23.10;38.40;;;;;;5063276;27;89691;-68
2022/04/26 16:44:39;;;;;;;1.37;1.07;;;23.10;38.40;;;;;;5062866;27;90866;-68
2022/04/26 16:47:07;;;;;;;1.40;1.30;;;23.10;38.40;;;;;;5082035;27;88488;-68
2022/04/26 16:49:35;;;;;;;1.63;1.00;;;23.10;38.40;;;;;;5081672;27;88566;-67
2022/04/26 16:52:05;;;;;;;2.03;1.00;;;23.10;38.50;;;;;;5063646;27;88508;-67
2022/04/26 16:54:33;;;;;;;1.17;0.97;;;23.10;38.50;;;;;;5064261;27;90600;-67
2022/04/26 16:57:01;;;;;;;0.67;0.67;;;23.10;38.50;;;;;;5063313;27;89986;-68
2022/04/26 16:59:30;;;;;;;2.27;1.13;;;23.10;38.50;;;;;;5082012;27;88624;-68
2022/04/26 17:01:59;;;;;;;4.63;1.57;;;23.00;38.50;;;;;;5083481;27;88525;-67
2022/04/26 17:04:28;;;;;;;3.13;1.97;;;23.00;38.40;;;;;;5079920;27;90215;-67
2022/04/26 17:06:58;;;;;;;3.07;1.37;;;23.00;38.40;;;;;;5062790;27;89971;-67
2022/04/26 17:09:26;;;;;;;1.03;0.90;;;23.00;38.40;;;;;;5064493;27;89181;-67
2022/04/26 17:11:54;;;;;;;1.83;1.13;;;23.00;38.40;;;;;;5063139;27;88574;-67
2022/04/26 17:14:23;;;;;;;1.50;1.03;;;23.00;38.40;;;;;;5077007;27;89511;-67
2022/04/26 17:16:51;;;;;;;3.97;1.57;;;23.00;38.40;;;;;;5066780;27;90160;-68
2022/04/26 17:19:21;;;;;;;1.60;1.27;;;22.90;38.30;;;;;;5068584;27;88502;-67
2022/04/26 17:21:49;;;;;;;2.07;1.30;;;22.90;38.40;;;;;;5067741;27;88466;-66